sensor_id;sensor_type;location;lat;lon;timestamp;temperature;humidity
31379;DHT22;61664;48.112;11.662;2023-04-15T00:01:36;8.30;84.70
31379;DHT22;61664;48.112;11.662;2023-04-15T00:04:03;8.30;84.90
31379;DHT22;61664;48.112;11.662;2023-04-15T00:06:30;8.30;85.00
31379;DHT22;61664;48.112;11.662;2023-04-15T00:08:57;8.30;84.90
31379;DHT22;61664;48.112;11.662;2023-04-15T00:11:24;8.30;84.70
31379;DHT22;61664;48.112;11.662;2023-04-15T00:13:51;8.30;84.60
31379;DHT22;61664;48.112;11.662;2023-04-15T00:16:18;8.30;84.50
31379;DHT22;61664;48.112;11.662;2023-04-15T00:18:45;8.30;84.50
31379;DHT22;61664;48.112;11.662;2023-04-15T00:21:12;8.30;84.50
31379;DHT22;61664;48.112;11.662;2023-04-15T00:23:39;8.30;84.50
31379;DHT22;61664;48.112;11.662;2023-04-15T00:26:06;8.30;84.50
31379;DHT22;61664;48.112;11.662;2023-04-15T00:28:33;8.30;84.50
31379;DHT22;61664;48.112;11.662;2023-04-15T00:31:00;8.30;84.60
31379;DHT22;61664;48.112;11.662;2023-04-15T00:33:27;8.30;84.60
31379;DHT22;61664;48.112;11.662;2023-04-15T00:35:53;8.40;84.70
31379;DHT22;61664;48.112;11.662;2023-04-15T00:38:20;8.30;84.60
31379;DHT22;61664;48.112;11.662;2023-04-15T00:40:47;8.30;84.60
31379;DHT22;61664;48.112;11.662;2023-04-15T00:43:14;8.30;84.70
31379;DHT22;61664;48.112;11.662;2023-04-15T00:45:41;8.30;84.70
31379;DHT22;61664;48.112;11.662;2023-04-15T00:48:09;8.30;84.70
31379;DHT22;61664;48.112;11.662;2023-04-15T00:50:37;8.30;84.70
31379;DHT22;61664;48.112;11.662;2023-04-15T00:53:04;8.30;84.90
31379;DHT22;61664;48.112;11.662;2023-04-15T00:55:31;8.30;85.20
31379;DHT22;61664;48.112;11.662;2023-04-15T00:57:58;8.30;85.30
31379;DHT22;61664;48.112;11.662;2023-04-15T01:00:25;8.30;85.30
31379;DHT22;61664;48.112;11.662;2023-04-15T01:02:52;8.30;85.30
31379;DHT22;61664;48.112;11.662;2023-04-15T01:05:19;8.40;85.30
31379;DHT22;61664;48.112;11.662;2023-04-15T01:07:47;8.40;85.40
31379;DHT22;61664;48.112;11.662;2023-04-15T01:10:14;8.40;85.20
31379;DHT22;61664;48.112;11.662;2023-04-15T01:12:41;8.40;85.10
31379;DHT22;61664;48.112;11.662;2023-04-15T01:15:09;8.40;85.00
31379;DHT22;61664;48.112;11.662;2023-04-15T01:17:37;8.40;85.00
31379;DHT22;61664;48.112;11.662;2023-04-15T01:20:05;8.50;84.90
31379;DHT22;61664;48.112;11.662;2023-04-15T01:22:35;8.40;84.60
31379;DHT22;61664;48.112;11.662;2023-04-15T01:25:11;8.40;84.50
31379;DHT22;61664;48.112;11.662;2023-04-15T01:27:44;8.50;83.80
31379;DHT22;61664;48.112;11.662;2023-04-15T01:30:11;8.40;84.40
31379;DHT22;61664;48.112;11.662;2023-04-15T01:32:38;8.50;84.60
31379;DHT22;61664;48.112;11.662;2023-04-15T01:35:05;8.40;84.60
31379;DHT22;61664;48.112;11.662;2023-04-15T01:37:33;8.40;84.70
31379;DHT22;61664;48.112;11.662;2023-04-15T01:40:00;8.40;84.70
31379;DHT22;61664;48.112;11.662;2023-04-15T01:42:27;8.50;84.80
31379;DHT22;61664;48.112;11.662;2023-04-15T01:44:53;8.40;84.80
31379;DHT22;61664;48.112;11.662;2023-04-15T01:47:20;8.50;84.90
31379;DHT22;61664;48.112;11.662;2023-04-15T01:49:48;8.50;84.80
31379;DHT22;61664;48.112;11.662;2023-04-15T01:52:14;8.50;84.80
31379;DHT22;61664;48.112;11.662;2023-04-15T01:54:41;8.50;84.70
31379;DHT22;61664;48.112;11.662;2023-04-15T01:57:08;8.50;84.60
31379;DHT22;61664;48.112;11.662;2023-04-15T01:59:35;8.50;84.60
31379;DHT22;61664;48.112;11.662;2023-04-15T02:02:03;8.50;84.70
31379;DHT22;61664;48.112;11.662;2023-04-15T02:04:31;8.50;84.70
31379;DHT22;61664;48.112;11.662;2023-04-15T02:06:58;8.50;84.70
31379;DHT22;61664;48.112;11.662;2023-04-15T02:09:25;8.50;84.60
31379;DHT22;61664;48.112;11.662;2023-04-15T02:11:55;8.50;84.60
31379;DHT22;61664;48.112;11.662;2023-04-15T02:14:22;8.50;84.40
31379;DHT22;61664;48.112;11.662;2023-04-15T02:16:49;8.50;84.80
31379;DHT22;61664;48.112;11.662;2023-04-15T02:19:16;8.60;84.30
31379;DHT22;61664;48.112;11.662;2023-04-15T02:21:43;8.50;84.00
31379;DHT22;61664;48.112;11.662;2023-04-15T02:24:10;8.50;84.10
31379;DHT22;61664;48.112;11.662;2023-04-15T02:26:37;8.50;84.10
31379;DHT22;61664;48.112;11.662;2023-04-15T02:29:05;8.50;84.20
31379;DHT22;61664;48.112;11.662;2023-04-15T02:31:31;8.50;84.20
31379;DHT22;61664;48.112;11.662;2023-04-15T02:34:02;8.50;84.30
31379;DHT22;61664;48.112;11.662;2023-04-15T02:36:30;8.50;80.90
31379;DHT22;61664;48.112;11.662;2023-04-15T02:38:57;8.40;83.80
31379;DHT22;61664;48.112;11.662;2023-04-15T02:41:25;8.40;83.90
31379;DHT22;61664;48.112;11.662;2023-04-15T02:43:53;8.50;84.20
31379;DHT22;61664;48.112;11.662;2023-04-15T02:46:21;8.40;84.20
31379;DHT22;61664;48.112;11.662;2023-04-15T02:48:49;8.40;84.30
31379;DHT22;61664;48.112;11.662;2023-04-15T02:51:18;8.40;84.30
31379;DHT22;61664;48.112;11.662;2023-04-15T02:53:47;8.40;84.10
31379;DHT22;61664;48.112;11.662;2023-04-15T02:56:15;8.40;84.30
31379;DHT22;61664;48.112;11.662;2023-04-15T02:58:44;8.40;84.50
31379;DHT22;61664;48.112;11.662;2023-04-15T03:01:11;8.40;84.60
31379;DHT22;61664;48.112;11.662;2023-04-15T03:03:38;8.40;84.80
31379;DHT22;61664;48.112;11.662;2023-04-15T03:06:05;8.40;84.60
31379;DHT22;61664;48.112;11.662;2023-04-15T03:08:34;8.40;84.70
31379;DHT22;61664;48.112;11.662;2023-04-15T03:11:02;8.40;84.60
31379;DHT22;61664;48.112;11.662;2023-04-15T03:13:29;8.40;84.80
31379;DHT22;61664;48.112;11.662;2023-04-15T03:15:56;8.50;84.80
31379;DHT22;61664;48.112;11.662;2023-04-15T03:18:23;8.40;84.80
31379;DHT22;61664;48.112;11.662;2023-04-15T03:20:50;8.50;84.90
31379;DHT22;61664;48.112;11.662;2023-04-15T03:23:17;8.50;84.90
31379;DHT22;61664;48.112;11.662;2023-04-15T03:25:44;8.50;84.80
31379;DHT22;61664;48.112;11.662;2023-04-15T03:28:11;8.50;84.60
31379;DHT22;61664;48.112;11.662;2023-04-15T03:30:38;8.50;85.00
31379;DHT22;61664;48.112;11.662;2023-04-15T03:33:05;8.50;84.30
31379;DHT22;61664;48.112;11.662;2023-04-15T03:35:32;8.50;84.30
31379;DHT22;61664;48.112;11.662;2023-04-15T03:37:59;8.50;84.20
31379;DHT22;61664;48.112;11.662;2023-04-15T03:40:26;8.50;84.20
31379;DHT22;61664;48.112;11.662;2023-04-15T03:42:53;8.50;84.40
31379;DHT22;61664;48.112;11.662;2023-04-15T03:45:20;8.50;84.40
31379;DHT22;61664;48.112;11.662;2023-04-15T03:47:47;8.50;84.50
31379;DHT22;61664;48.112;11.662;2023-04-15T03:50:15;8.60;84.40
31379;DHT22;61664;48.112;11.662;2023-04-15T03:52:42;8.60;84.40
31379;DHT22;61664;48.112;11.662;2023-04-15T03:55:10;8.60;84.40
31379;DHT22;61664;48.112;11.662;2023-04-15T03:57:37;8.60;84.80
31379;DHT22;61664;48.112;11.662;2023-04-15T04:00:06;8.60;84.30
31379;DHT22;61664;48.112;11.662;2023-04-15T04:02:37;8.60;84.20
31379;DHT22;61664;48.112;11.662;2023-04-15T04:05:04;8.60;84.10
31379;DHT22;61664;48.112;11.662;2023-04-15T04:07:31;8.60;84.20
31379;DHT22;61664;48.112;11.662;2023-04-15T04:09:58;8.60;84.20
31379;DHT22;61664;48.112;11.662;2023-04-15T04:12:25;8.60;84.20
31379;DHT22;61664;48.112;11.662;2023-04-15T04:14:52;8.60;84.10
31379;DHT22;61664;48.112;11.662;2023-04-15T04:17:19;8.60;84.20
31379;DHT22;61664;48.112;11.662;2023-04-15T04:19:46;8.60;84.20
31379;DHT22;61664;48.112;11.662;2023-04-15T04:22:13;8.60;84.10
31379;DHT22;61664;48.112;11.662;2023-04-15T04:24:40;8.60;84.00
31379;DHT22;61664;48.112;11.662;2023-04-15T04:27:07;8.60;84.00
31379;DHT22;61664;48.112;11.662;2023-04-15T04:29:33;8.60;83.90
31379;DHT22;61664;48.112;11.662;2023-04-15T04:32:00;8.60;84.00
31379;DHT22;61664;48.112;11.662;2023-04-15T04:34:27;8.70;84.10
31379;DHT22;61664;48.112;11.662;2023-04-15T04:36:54;8.60;83.80
31379;DHT22;61664;48.112;11.662;2023-04-15T04:39:21;8.70;83.80
31379;DHT22;61664;48.112;11.662;2023-04-15T04:41:48;8.60;83.50
31379;DHT22;61664;48.112;11.662;2023-04-15T04:44:17;8.60;83.10
31379;DHT22;61664;48.112;11.662;2023-04-15T04:46:44;8.60;83.10
31379;DHT22;61664;48.112;11.662;2023-04-15T04:49:11;8.60;83.10
31379;DHT22;61664;48.112;11.662;2023-04-15T04:51:38;8.60;82.80
31379;DHT22;61664;48.112;11.662;2023-04-15T04:54:05;8.60;83.20
31379;DHT22;61664;48.112;11.662;2023-04-15T04:56:32;8.60;83.20
31379;DHT22;61664;48.112;11.662;2023-04-15T04:59:00;8.60;83.10
31379;DHT22;61664;48.112;11.662;2023-04-15T05:01:27;8.50;83.20
31379;DHT22;61664;48.112;11.662;2023-04-15T05:03:54;8.50;83.20
31379;DHT22;61664;48.112;11.662;2023-04-15T05:06:22;8.50;83.40
31379;DHT22;61664;48.112;11.662;2023-04-15T05:08:49;8.50;83.50
31379;DHT22;61664;48.112;11.662;2023-04-15T05:11:16;8.60;83.30
31379;DHT22;61664;48.112;11.662;2023-04-15T05:13:43;8.60;83.40
31379;DHT22;61664;48.112;11.662;2023-04-15T05:16:10;8.50;83.30
31379;DHT22;61664;48.112;11.662;2023-04-15T05:18:37;8.50;83.50
31379;DHT22;61664;48.112;11.662;2023-04-15T05:21:04;8.60;83.60
31379;DHT22;61664;48.112;11.662;2023-04-15T05:23:31;8.60;83.90
31379;DHT22;61664;48.112;11.662;2023-04-15T05:25:58;8.60;83.50
31379;DHT22;61664;48.112;11.662;2023-04-15T05:28:25;8.60;83.60
31379;DHT22;61664;48.112;11.662;2023-04-15T05:30:53;8.60;83.90
31379;DHT22;61664;48.112;11.662;2023-04-15T05:33:20;8.60;84.00
31379;DHT22;61664;48.112;11.662;2023-04-15T05:35:47;8.60;84.30
31379;DHT22;61664;48.112;11.662;2023-04-15T05:38:14;8.70;84.30
31379;DHT22;61664;48.112;11.662;2023-04-15T05:40:41;8.70;84.30
31379;DHT22;61664;48.112;11.662;2023-04-15T05:43:08;8.70;84.20
31379;DHT22;61664;48.112;11.662;2023-04-15T05:45:35;8.80;84.00
31379;DHT22;61664;48.112;11.662;2023-04-15T05:48:02;8.80;83.40
31379;DHT22;61664;48.112;11.662;2023-04-15T05:50:29;8.80;82.70
31379;DHT22;61664;48.112;11.662;2023-04-15T05:52:56;8.80;82.30
31379;DHT22;61664;48.112;11.662;2023-04-15T05:55:22;8.80;82.20
31379;DHT22;61664;48.112;11.662;2023-04-15T05:57:49;8.80;82.40
31379;DHT22;61664;48.112;11.662;2023-04-15T06:00:16;8.80;82.40
31379;DHT22;61664;48.112;11.662;2023-04-15T06:02:43;8.80;82.30
31379;DHT22;61664;48.112;11.662;2023-04-15T06:05:10;8.80;82.50
31379;DHT22;61664;48.112;11.662;2023-04-15T06:07:38;8.80;82.60
31379;DHT22;61664;48.112;11.662;2023-04-15T06:10:05;8.80;82.60
31379;DHT22;61664;48.112;11.662;2023-04-15T06:12:33;8.80;82.60
31379;DHT22;61664;48.112;11.662;2023-04-15T06:15:00;8.80;82.50
31379;DHT22;61664;48.112;11.662;2023-04-15T06:17:27;8.90;83.10
31379;DHT22;61664;48.112;11.662;2023-04-15T06:19:54;8.90;82.80
31379;DHT22;61664;48.112;11.662;2023-04-15T06:22:22;8.90;83.00
31379;DHT22;61664;48.112;11.662;2023-04-15T06:24:49;8.90;82.90
31379;DHT22;61664;48.112;11.662;2023-04-15T06:27:17;9.00;82.60
31379;DHT22;61664;48.112;11.662;2023-04-15T06:29:44;9.00;82.50
31379;DHT22;61664;48.112;11.662;2023-04-15T06:32:11;9.10;82.90
31379;DHT22;61664;48.112;11.662;2023-04-15T06:34:38;9.10;82.90
31379;DHT22;61664;48.112;11.662;2023-04-15T06:37:05;9.10;83.20
31379;DHT22;61664;48.112;11.662;2023-04-15T06:39:32;9.10;83.20
31379;DHT22;61664;48.112;11.662;2023-04-15T06:41:59;9.20;83.00
31379;DHT22;61664;48.112;11.662;2023-04-15T06:44:27;9.20;82.50
31379;DHT22;61664;48.112;11.662;2023-04-15T06:46:54;9.30;83.10
31379;DHT22;61664;48.112;11.662;2023-04-15T06:49:22;9.30;83.70
31379;DHT22;61664;48.112;11.662;2023-04-15T06:51:49;9.40;83.90
31379;DHT22;61664;48.112;11.662;2023-04-15T06:54:16;9.50;83.40
31379;DHT22;61664;48.112;11.662;2023-04-15T06:56:43;9.60;83.40
31379;DHT22;61664;48.112;11.662;2023-04-15T06:59:11;9.60;82.10
31379;DHT22;61664;48.112;11.662;2023-04-15T07:01:41;9.60;81.90
31379;DHT22;61664;48.112;11.662;2023-04-15T07:04:08;9.70;82.30
31379;DHT22;61664;48.112;11.662;2023-04-15T07:06:35;9.70;81.70
31379;DHT22;61664;48.112;11.662;2023-04-15T07:09:02;9.80;81.90
31379;DHT22;61664;48.112;11.662;2023-04-15T07:11:31;9.80;81.40
31379;DHT22;61664;48.112;11.662;2023-04-15T07:13:58;9.90;81.20
31379;DHT22;61664;48.112;11.662;2023-04-15T07:16:25;9.90;81.40
31379;DHT22;61664;48.112;11.662;2023-04-15T07:18:55;10.00;82.60
31379;DHT22;61664;48.112;11.662;2023-04-15T07:21:24;10.10;82.80
31379;DHT22;61664;48.112;11.662;2023-04-15T07:23:51;10.20;82.40
31379;DHT22;61664;48.112;11.662;2023-04-15T07:26:18;10.20;82.60
31379;DHT22;61664;48.112;11.662;2023-04-15T07:28:45;10.40;81.70
31379;DHT22;61664;48.112;11.662;2023-04-15T07:31:12;10.40;82.60
31379;DHT22;61664;48.112;11.662;2023-04-15T07:33:40;10.50;83.40
31379;DHT22;61664;48.112;11.662;2023-04-15T07:36:07;10.60;82.80
31379;DHT22;61664;48.112;11.662;2023-04-15T07:38:34;10.70;82.00
31379;DHT22;61664;48.112;11.662;2023-04-15T07:41:01;10.80;81.60
31379;DHT22;61664;48.112;11.662;2023-04-15T07:43:29;10.80;80.50
31379;DHT22;61664;48.112;11.662;2023-04-15T07:45:55;10.90;81.30
31379;DHT22;61664;48.112;11.662;2023-04-15T07:48:22;11.00;81.40
31379;DHT22;61664;48.112;11.662;2023-04-15T07:50:49;11.00;81.30
31379;DHT22;61664;48.112;11.662;2023-04-15T07:53:16;11.10;81.30
31379;DHT22;61664;48.112;11.662;2023-04-15T07:55:43;11.10;80.50
31379;DHT22;61664;48.112;11.662;2023-04-15T07:58:10;11.20;80.70
31379;DHT22;61664;48.112;11.662;2023-04-15T08:00:37;11.20;82.90
31379;DHT22;61664;48.112;11.662;2023-04-15T08:03:04;11.30;83.70
31379;DHT22;61664;48.112;11.662;2023-04-15T08:05:31;11.50;83.10
31379;DHT22;61664;48.112;11.662;2023-04-15T08:07:58;11.60;83.70
31379;DHT22;61664;48.112;11.662;2023-04-15T08:10:25;11.80;84.60
31379;DHT22;61664;48.112;11.662;2023-04-15T08:12:53;11.90;82.00
31379;DHT22;61664;48.112;11.662;2023-04-15T08:15:20;12.10;82.40
31379;DHT22;61664;48.112;11.662;2023-04-15T08:17:47;12.20;83.00
31379;DHT22;61664;48.112;11.662;2023-04-15T08:20:14;12.30;84.60
31379;DHT22;61664;48.112;11.662;2023-04-15T08:22:41;12.50;84.80
31379;DHT22;61664;48.112;11.662;2023-04-15T08:25:08;12.70;84.50
31379;DHT22;61664;48.112;11.662;2023-04-15T08:27:35;12.90;85.00
31379;DHT22;61664;48.112;11.662;2023-04-15T08:30:03;13.20;83.20
31379;DHT22;61664;48.112;11.662;2023-04-15T08:32:30;13.30;79.70
31379;DHT22;61664;48.112;11.662;2023-04-15T08:34:58;13.40;79.00
31379;DHT22;61664;48.112;11.662;2023-04-15T08:37:24;13.50;77.90
31379;DHT22;61664;48.112;11.662;2023-04-15T08:39:52;13.50;77.30
31379;DHT22;61664;48.112;11.662;2023-04-15T08:42:26;13.40;76.70
31379;DHT22;61664;48.112;11.662;2023-04-15T08:44:59;13.40;72.10
31379;DHT22;61664;48.112;11.662;2023-04-15T08:47:29;13.30;76.00
31379;DHT22;61664;48.112;11.662;2023-04-15T08:50:02;13.30;74.90
31379;DHT22;61664;48.112;11.662;2023-04-15T08:52:30;13.20;73.10
31379;DHT22;61664;48.112;11.662;2023-04-15T08:54:59;13.10;75.20
31379;DHT22;61664;48.112;11.662;2023-04-15T08:57:28;13.00;75.20
31379;DHT22;61664;48.112;11.662;2023-04-15T08:59:55;13.00;76.80
31379;DHT22;61664;48.112;11.662;2023-04-15T09:02:24;13.00;77.40
31379;DHT22;61664;48.112;11.662;2023-04-15T09:04:53;13.00;77.10
31379;DHT22;61664;48.112;11.662;2023-04-15T09:07:20;13.00;77.70
31379;DHT22;61664;48.112;11.662;2023-04-15T09:09:47;13.00;77.30
31379;DHT22;61664;48.112;11.662;2023-04-15T09:12:15;13.00;78.10
31379;DHT22;61664;48.112;11.662;2023-04-15T09:14:44;13.00;78.50
31379;DHT22;61664;48.112;11.662;2023-04-15T09:17:12;13.10;77.90
31379;DHT22;61664;48.112;11.662;2023-04-15T09:19:44;13.10;79.60
31379;DHT22;61664;48.112;11.662;2023-04-15T09:22:11;13.20;79.00
31379;DHT22;61664;48.112;11.662;2023-04-15T09:24:39;13.30;77.30
31379;DHT22;61664;48.112;11.662;2023-04-15T09:27:08;13.30;77.10
31379;DHT22;61664;48.112;11.662;2023-04-15T09:29:35;13.40;76.90
31379;DHT22;61664;48.112;11.662;2023-04-15T09:32:15;13.40;76.70
31379;DHT22;61664;48.112;11.662;2023-04-15T09:34:42;13.40;71.10
31379;DHT22;61664;48.112;11.662;2023-04-15T09:37:09;13.40;76.60
31379;DHT22;61664;48.112;11.662;2023-04-15T09:39:54;13.40;76.30
31379;DHT22;61664;48.112;11.662;2023-04-15T09:42:21;13.40;77.40
31379;DHT22;61664;48.112;11.662;2023-04-15T09:44:52;13.40;77.50
31379;DHT22;61664;48.112;11.662;2023-04-15T09:47:31;13.40;78.20
31379;DHT22;61664;48.112;11.662;2023-04-15T09:49:59;13.50;72.20
31379;DHT22;61664;48.112;11.662;2023-04-15T09:52:27;13.50;79.70
31379;DHT22;61664;48.112;11.662;2023-04-15T09:54:57;13.60;79.70
31379;DHT22;61664;48.112;11.662;2023-04-15T09:57:33;13.60;78.60
31379;DHT22;61664;48.112;11.662;2023-04-15T10:00:06;13.70;72.60
31379;DHT22;61664;48.112;11.662;2023-04-15T10:02:39;13.70;76.40
31379;DHT22;61664;48.112;11.662;2023-04-15T10:05:13;13.70;74.30
31379;DHT22;61664;48.112;11.662;2023-04-15T10:07:41;13.70;73.00
31379;DHT22;61664;48.112;11.662;2023-04-15T10:10:10;13.70;76.90
31379;DHT22;61664;48.112;11.662;2023-04-15T10:12:38;13.60;75.90
31379;DHT22;61664;48.112;11.662;2023-04-15T10:15:15;13.50;76.50
31379;DHT22;61664;48.112;11.662;2023-04-15T10:17:44;13.50;73.30
31379;DHT22;61664;48.112;11.662;2023-04-15T10:20:14;13.50;75.00
31379;DHT22;61664;48.112;11.662;2023-04-15T10:22:45;13.40;75.00
31379;DHT22;61664;48.112;11.662;2023-04-15T10:25:14;13.40;76.00
31379;DHT22;61664;48.112;11.662;2023-04-15T10:27:42;13.40;75.80
31379;DHT22;61664;48.112;11.662;2023-04-15T10:30:09;13.40;75.90
31379;DHT22;61664;48.112;11.662;2023-04-15T10:32:38;13.40;76.90
31379;DHT22;61664;48.112;11.662;2023-04-15T10:35:06;13.40;76.90
31379;DHT22;61664;48.112;11.662;2023-04-15T10:37:36;13.40;77.10
31379;DHT22;61664;48.112;11.662;2023-04-15T10:40:26;13.50;76.40
31379;DHT22;61664;48.112;11.662;2023-04-15T10:42:54;13.50;68.10
31379;DHT22;61664;48.112;11.662;2023-04-15T10:45:25;13.50;77.40
31379;DHT22;61664;48.112;11.662;2023-04-15T10:48:01;13.50;77.00
31379;DHT22;61664;48.112;11.662;2023-04-15T10:50:30;13.60;74.70
31379;DHT22;61664;48.112;11.662;2023-04-15T10:52:58;13.70;77.10
31379;DHT22;61664;48.112;11.662;2023-04-15T10:55:32;13.70;77.70
31379;DHT22;61664;48.112;11.662;2023-04-15T10:58:00;13.80;70.00
31379;DHT22;61664;48.112;11.662;2023-04-15T11:00:30;13.90;79.30
31379;DHT22;61664;48.112;11.662;2023-04-15T11:03:07;14.00;78.10
31379;DHT22;61664;48.112;11.662;2023-04-15T11:08:05;14.10;76.70
31379;DHT22;61664;48.112;11.662;2023-04-15T11:13:04;14.30;78.10
31379;DHT22;61664;48.112;11.662;2023-04-15T11:15:45;14.40;75.80
31379;DHT22;61664;48.112;11.662;2023-04-15T11:25:57;14.40;71.20
31379;DHT22;61664;48.112;11.662;2023-04-15T11:28:27;14.40;76.00
31379;DHT22;61664;48.112;11.662;2023-04-15T11:30:56;14.40;73.10
31379;DHT22;61664;48.112;11.662;2023-04-15T11:33:24;14.40;74.10
31379;DHT22;61664;48.112;11.662;2023-04-15T11:35:52;14.30;73.90
31379;DHT22;61664;48.112;11.662;2023-04-15T11:38:20;14.20;74.20
31379;DHT22;61664;48.112;11.662;2023-04-15T11:40:49;14.20;74.50
31379;DHT22;61664;48.112;11.662;2023-04-15T11:43:19;14.20;74.00
31379;DHT22;61664;48.112;11.662;2023-04-15T11:45:54;14.10;72.40
31379;DHT22;61664;48.112;11.662;2023-04-15T11:48:27;14.10;66.20
31379;DHT22;61664;48.112;11.662;2023-04-15T11:51:03;13.90;72.90
31379;DHT22;61664;48.112;11.662;2023-04-15T11:53:49;13.80;72.80
31379;DHT22;61664;48.112;11.662;2023-04-15T11:56:19;13.60;67.00
31379;DHT22;61664;48.112;11.662;2023-04-15T11:58:51;13.50;73.00
31379;DHT22;61664;48.112;11.662;2023-04-15T12:01:19;13.40;74.00
31379;DHT22;61664;48.112;11.662;2023-04-15T12:03:47;13.30;74.00
31379;DHT22;61664;48.112;11.662;2023-04-15T12:06:19;13.20;73.20
31379;DHT22;61664;48.112;11.662;2023-04-15T12:09:04;13.10;73.50
31379;DHT22;61664;48.112;11.662;2023-04-15T12:14:30;13.00;69.50
31379;DHT22;61664;48.112;11.662;2023-04-15T12:17:04;12.90;72.60
31379;DHT22;61664;48.112;11.662;2023-04-15T12:19:37;12.90;75.00
31379;DHT22;61664;48.112;11.662;2023-04-15T12:22:08;12.90;71.80
31379;DHT22;61664;48.112;11.662;2023-04-15T12:24:37;12.90;73.80
31379;DHT22;61664;48.112;11.662;2023-04-15T12:27:07;12.90;75.10
31379;DHT22;61664;48.112;11.662;2023-04-15T12:29:35;12.90;74.90
31379;DHT22;61664;48.112;11.662;2023-04-15T12:32:05;12.90;75.20
31379;DHT22;61664;48.112;11.662;2023-04-15T12:34:39;12.90;75.60
31379;DHT22;61664;48.112;11.662;2023-04-15T12:37:08;12.90;71.00
31379;DHT22;61664;48.112;11.662;2023-04-15T12:39:37;13.00;75.10
31379;DHT22;61664;48.112;11.662;2023-04-15T12:42:06;13.00;75.20
31379;DHT22;61664;48.112;11.662;2023-04-15T12:44:35;13.10;75.80
31379;DHT22;61664;48.112;11.662;2023-04-15T12:47:03;13.10;75.70
31379;DHT22;61664;48.112;11.662;2023-04-15T12:49:31;13.20;75.90
31379;DHT22;61664;48.112;11.662;2023-04-15T12:52:00;13.30;75.30
31379;DHT22;61664;48.112;11.662;2023-04-15T12:54:28;13.30;74.30
31379;DHT22;61664;48.112;11.662;2023-04-15T12:56:57;13.30;73.00
31379;DHT22;61664;48.112;11.662;2023-04-15T12:59:24;13.30;72.30
31379;DHT22;61664;48.112;11.662;2023-04-15T13:01:52;13.30;72.00
31379;DHT22;61664;48.112;11.662;2023-04-15T13:04:20;13.30;71.20
31379;DHT22;61664;48.112;11.662;2023-04-15T13:06:48;13.30;70.90
31379;DHT22;61664;48.112;11.662;2023-04-15T13:09:15;13.20;70.60
31379;DHT22;61664;48.112;11.662;2023-04-15T13:11:42;13.10;71.20
31379;DHT22;61664;48.112;11.662;2023-04-15T13:14:10;13.00;71.10
31379;DHT22;61664;48.112;11.662;2023-04-15T13:16:38;13.00;72.20
31379;DHT22;61664;48.112;11.662;2023-04-15T13:19:05;12.90;72.30
31379;DHT22;61664;48.112;11.662;2023-04-15T13:21:32;12.90;72.60
31379;DHT22;61664;48.112;11.662;2023-04-15T13:24:02;12.90;72.60
31379;DHT22;61664;48.112;11.662;2023-04-15T13:26:30;12.80;72.50
31379;DHT22;61664;48.112;11.662;2023-04-15T13:28:57;12.80;72.70
31379;DHT22;61664;48.112;11.662;2023-04-15T13:31:25;12.80;72.50
31379;DHT22;61664;48.112;11.662;2023-04-15T13:33:52;12.70;72.20
31379;DHT22;61664;48.112;11.662;2023-04-15T13:36:19;12.80;72.20
31379;DHT22;61664;48.112;11.662;2023-04-15T13:38:46;12.70;72.90
31379;DHT22;61664;48.112;11.662;2023-04-15T13:41:17;12.70;72.80
31379;DHT22;61664;48.112;11.662;2023-04-15T13:43:44;12.70;73.30
31379;DHT22;61664;48.112;11.662;2023-04-15T13:46:11;12.70;73.10
31379;DHT22;61664;48.112;11.662;2023-04-15T13:48:38;12.70;73.50
31379;DHT22;61664;48.112;11.662;2023-04-15T13:51:05;12.70;73.30
31379;DHT22;61664;48.112;11.662;2023-04-15T13:53:32;12.70;72.50
31379;DHT22;61664;48.112;11.662;2023-04-15T13:56:08;12.70;72.90
31379;DHT22;61664;48.112;11.662;2023-04-15T13:58:36;12.70;70.40
31379;DHT22;61664;48.112;11.662;2023-04-15T14:01:04;12.70;70.80
31379;DHT22;61664;48.112;11.662;2023-04-15T14:03:36;12.60;70.50
31379;DHT22;61664;48.112;11.662;2023-04-15T14:06:04;12.40;68.60
31379;DHT22;61664;48.112;11.662;2023-04-15T14:08:32;12.40;70.30
31379;DHT22;61664;48.112;11.662;2023-04-15T14:10:59;12.30;69.90
31379;DHT22;61664;48.112;11.662;2023-04-15T14:13:26;12.20;70.80
31379;DHT22;61664;48.112;11.662;2023-04-15T14:15:53;12.20;71.80
31379;DHT22;61664;48.112;11.662;2023-04-15T14:18:20;12.10;72.10
31379;DHT22;61664;48.112;11.662;2023-04-15T14:20:47;12.10;72.90
31379;DHT22;61664;48.112;11.662;2023-04-15T14:23:14;12.10;72.90
31379;DHT22;61664;48.112;11.662;2023-04-15T14:25:41;12.00;73.30
31379;DHT22;61664;48.112;11.662;2023-04-15T14:28:08;12.10;73.30
31379;DHT22;61664;48.112;11.662;2023-04-15T14:30:34;12.10;72.70
31379;DHT22;61664;48.112;11.662;2023-04-15T14:33:02;12.10;72.80
31379;DHT22;61664;48.112;11.662;2023-04-15T14:35:29;12.10;73.00
31379;DHT22;61664;48.112;11.662;2023-04-15T14:37:56;12.20;72.70
31379;DHT22;61664;48.112;11.662;2023-04-15T14:40:23;12.10;72.60
31379;DHT22;61664;48.112;11.662;2023-04-15T14:42:50;12.20;72.60
31379;DHT22;61664;48.112;11.662;2023-04-15T14:45:17;12.20;71.70
31379;DHT22;61664;48.112;11.662;2023-04-15T14:47:45;12.20;72.50
31379;DHT22;61664;48.112;11.662;2023-04-15T14:50:12;12.20;71.90
31379;DHT22;61664;48.112;11.662;2023-04-15T14:52:39;12.20;71.90
31379;DHT22;61664;48.112;11.662;2023-04-15T14:55:08;12.20;72.60
31379;DHT22;61664;48.112;11.662;2023-04-15T14:57:40;12.20;71.70
31379;DHT22;61664;48.112;11.662;2023-04-15T15:00:09;12.30;71.60
31379;DHT22;61664;48.112;11.662;2023-04-15T15:02:40;12.30;72.00
31379;DHT22;61664;48.112;11.662;2023-04-15T15:05:09;12.30;72.10
31379;DHT22;61664;48.112;11.662;2023-04-15T15:07:37;12.40;71.70
31379;DHT22;61664;48.112;11.662;2023-04-15T15:10:05;12.30;72.10
31379;DHT22;61664;48.112;11.662;2023-04-15T15:12:32;12.40;72.50
31379;DHT22;61664;48.112;11.662;2023-04-15T15:15:00;12.30;72.50
31379;DHT22;61664;48.112;11.662;2023-04-15T15:17:41;12.30;72.80
31379;DHT22;61664;48.112;11.662;2023-04-15T15:20:08;12.30;73.00
31379;DHT22;61664;48.112;11.662;2023-04-15T15:22:36;12.30;73.20
31379;DHT22;61664;48.112;11.662;2023-04-15T15:25:03;12.30;73.00
31379;DHT22;61664;48.112;11.662;2023-04-15T15:27:30;12.30;73.10
31379;DHT22;61664;48.112;11.662;2023-04-15T15:29:57;12.30;73.30
31379;DHT22;61664;48.112;11.662;2023-04-15T15:32:24;12.20;72.80
31379;DHT22;61664;48.112;11.662;2023-04-15T15:34:54;12.10;73.10
31379;DHT22;61664;48.112;11.662;2023-04-15T15:37:21;12.10;73.40
31379;DHT22;61664;48.112;11.662;2023-04-15T15:39:48;12.00;73.10
31379;DHT22;61664;48.112;11.662;2023-04-15T15:42:21;11.90;72.70
31379;DHT22;61664;48.112;11.662;2023-04-15T15:44:49;11.80;71.50